Time;durP1;ratioP1;P1;durP2;ratioP2;P2;SDS_P1;SDS_P2;PMS_P1;PMS_P2;Temp;Humidity;BMP_temperature;BMP_pressure;BME280_temperature;BME280_humidity;BME280_pressure;Samples;Min_cycle;Max_cycle;Signal;HPM_P1;HPM_P2
2022/11/17 00:01:21;;;;;;;20.30;12.55;;;-1.20;94.30;;;;;;5013045;28;20022;-84
2022/11/17 00:03:48;;;;;;;19.08;12.85;;;-1.20;94.20;;;;;;5012896;28;20042;-83
2022/11/17 00:06:14;;;;;;;;;;;-1.20;94.30;;;;;;5012868;28;20029;-84
2022/11/17 00:08:40;;;;;;;19.90;10.20;;;-1.30;94.20;;;;;;5013068;28;19905;-84
2022/11/17 00:11:06;;;;;;;18.33;11.10;;;-1.40;94.50;;;;;;5022324;28;20033;-84
2022/11/17 00:16:19;;;;;;;19.80;10.40;;;-1.50;94.70;;;;;;5024635;28;20077;-83
2022/11/17 00:21:29;;;;;;;17.15;11.65;;;-1.50;94.70;;;;;;5017453;28;20045;-84
2022/11/17 00:23:55;;;;;;;15.35;11.30;;;-1.50;94.90;;;;;;5025723;28;20034;-85
2022/11/17 00:26:26;;;;;;;22.15;11.95;;;-1.50;95.00;;;;;;5013817;28;20024;-87
2022/11/17 00:28:54;;;;;;;19.73;12.27;;;-1.60;95.00;;;;;;5006898;28;20076;-86
2022/11/17 00:34:06;;;;;;;20.05;12.77;;;-1.50;95.10;;;;;;5005759;28;20037;-85
2022/11/17 00:36:33;;;;;;;20.30;11.55;;;-1.50;95.00;;;;;;5016410;28;20101;-85
2022/11/17 00:38:59;;;;;;;20.08;13.40;;;-1.50;95.10;;;;;;5002478;28;20051;-81
2022/11/17 00:41:25;;;;;;;19.83;12.02;;;-1.50;95.10;;;;;;5012258;28;20067;-81
2022/11/17 00:43:50;;;;;;;21.58;11.38;;;-1.40;95.10;;;;;;4995369;28;20034;-82
2022/11/17 00:46:16;;;;;;;18.80;10.73;;;-1.40;95.00;;;;;;5013297;28;20050;-80
2022/11/17 00:48:42;;;;;;;17.42;9.15;;;-1.40;95.00;;;;;;4998202;28;20403;-83
2022/11/17 00:51:08;;;;;;;18.02;9.43;;;-1.40;95.00;;;;;;5012171;28;20018;-83
2022/11/17 00:53:34;;;;;;;15.13;9.43;;;-1.50;95.00;;;;;;5012564;28;20455;-82
2022/11/17 00:55:59;;;;;;;14.77;9.35;;;-1.40;95.10;;;;;;5012196;28;20380;-83
2022/11/17 00:58:25;;;;;;;17.98;10.18;;;-1.50;95.00;;;;;;5012293;28;20022;-83
2022/11/17 01:00:51;;;;;;;15.38;10.18;;;-1.50;95.10;;;;;;5012333;28;20026;-82
2022/11/17 01:03:17;;;;;;;18.92;10.68;;;-1.50;95.10;;;;;;5011637;28;20070;-82
2022/11/17 01:05:43;;;;;;;17.10;9.77;;;-1.50;95.20;;;;;;5012091;28;20467;-83
2022/11/17 01:08:08;;;;;;;15.57;10.07;;;-1.50;95.20;;;;;;5012051;28;20026;-83
2022/11/17 01:10:35;;;;;;;13.32;8.40;;;-1.40;95.20;;;;;;5012144;28;20022;-82
2022/11/17 01:13:01;;;;;;;12.98;9.57;;;-1.30;95.20;;;;;;5010589;28;20030;-82
2022/11/17 01:15:27;;;;;;;19.17;9.00;;;-1.30;95.20;;;;;;5010090;28;20037;-83
2022/11/17 01:17:53;;;;;;;16.00;10.60;;;-1.40;95.20;;;;;;5012064;28;20104;-83
2022/11/17 01:20:19;;;;;;;14.77;10.15;;;-1.40;95.30;;;;;;5012053;28;20021;-83
2022/11/17 01:22:45;;;;;;;16.73;10.25;;;-1.30;95.30;;;;;;5012531;28;20042;-82
2022/11/17 01:25:10;;;;;;;16.02;10.20;;;-1.30;95.30;;;;;;5007573;28;20403;-83
2022/11/17 01:27:36;;;;;;;14.43;9.38;;;-1.20;95.30;;;;;;5012350;28;20025;-83
2022/11/17 01:30:03;;;;;;;15.70;10.35;;;-1.20;95.10;;;;;;5011741;28;20566;-83
2022/11/17 01:32:28;;;;;;;13.82;9.20;;;-1.20;95.10;;;;;;5011874;28;20022;-83
2022/11/17 01:34:54;;;;;;;18.58;9.73;;;-1.20;95.10;;;;;;5014969;28;20503;-83
2022/11/17 01:37:20;;;;;;;14.32;9.70;;;-1.20;95.20;;;;;;5015363;28;20083;-82
2022/11/17 01:39:49;;;;;;;13.43;8.75;;;-1.20;95.20;;;;;;5016753;28;20152;-82
2022/11/17 01:42:24;;;;;;;14.93;9.88;;;-1.10;95.20;;;;;;5023752;28;20056;-84
2022/11/17 01:45:13;;;;;;;11.35;8.23;;;-1.00;95.10;;;;;;5008880;28;20030;-83
2022/11/17 01:47:42;;;;;;;16.08;9.73;;;-1.00;95.00;;;;;;4982504;28;20411;-83
2022/11/17 01:50:21;;;;;;;13.25;8.23;;;-0.90;95.00;;;;;;5016029;28;20032;-82
2022/11/17 01:52:50;;;;;;;11.55;8.35;;;-1.00;94.90;;;;;;5017192;28;20085;-81
2022/11/17 01:55:18;;;;;;;15.35;9.52;;;-1.00;95.00;;;;;;5029817;28;20041;-80
2022/11/17 01:57:54;;;;;;;14.40;8.90;;;-1.00;95.00;;;;;;5015026;28;20022;-81
2022/11/17 02:00:19;;;;;;;13.52;9.27;;;-1.00;95.00;;;;;;5010443;28;20034;-83
2022/11/17 02:02:47;;;;;;;15.52;10.35;;;-1.10;95.40;;;;;;5010860;28;20132;-82
2022/11/17 02:05:30;;;;;;;16.13;9.35;;;-1.20;95.20;;;;;;5015233;28;20026;-81
2022/11/17 02:07:58;;;;;;;13.75;8.50;;;-1.20;95.30;;;;;;5011320;28;20112;-82
2022/11/17 02:10:25;;;;;;;13.35;8.88;;;-1.20;95.30;;;;;;5014795;28;20022;-81
2022/11/17 02:12:53;;;;;;;15.32;9.48;;;-1.20;95.40;;;;;;5014896;28;20034;-82
2022/11/17 02:15:19;;;;;;;17.67;10.30;;;-1.20;95.40;;;;;;5014592;28;20017;-82
2022/11/17 02:17:45;;;;;;;15.23;8.18;;;-1.20;95.40;;;;;;5002263;28;20523;-81
2022/11/17 02:20:28;;;;;;;15.45;8.80;;;-1.20;95.40;;;;;;4997453;28;20105;-82
2022/11/17 02:23:21;;;;;;;13.77;9.77;;;-1.30;95.40;;;;;;5016857;28;20026;-82
2022/11/17 02:26:37;;;;;;;16.08;9.13;;;-1.30;95.50;;;;;;5010347;28;20021;-80
2022/11/17 02:29:15;;;;;;;15.45;10.80;;;-1.30;95.60;;;;;;4960407;28;20045;-81
2022/11/17 02:32:05;;;;;;;15.68;9.35;;;-1.40;95.80;;;;;;4996796;28;20057;-82
2022/11/17 02:34:42;;;;;;;14.20;8.85;;;-1.40;95.90;;;;;;5015113;28;20040;-82
2022/11/17 02:37:31;;;;;;;10.50;8.52;;;-1.50;96.00;;;;;;5015603;28;20026;-81
2022/11/17 02:40:02;;;;;;;16.80;10.57;;;-1.50;96.20;;;;;;5026956;28;20223;-81
2022/11/17 02:45:27;;;;;;;15.07;11.55;;;-1.60;96.90;;;;;;5013878;28;20029;-82
2022/11/17 02:47:57;;;;;;;16.35;11.13;;;-1.60;96.70;;;;;;5012505;28;20095;-81
2022/11/17 02:50:26;;;;;;;14.90;9.52;;;-1.60;96.80;;;;;;5014346;28;20021;-80
2022/11/17 02:52:52;;;;;;;16.10;10.70;;;-1.50;96.80;;;;;;5014271;28;20025;-81
2022/11/17 02:55:17;;;;;;;16.20;9.48;;;-1.50;96.80;;;;;;5014675;28;20029;-82
2022/11/17 02:57:43;;;;;;;19.52;10.60;;;-1.40;96.80;;;;;;5017324;28;20034;-82
2022/11/17 03:00:12;;;;;;;15.80;10.18;;;-1.40;96.80;;;;;;5015839;28;20399;-81
2022/11/17 03:02:47;;;;;;;17.13;10.68;;;-1.40;96.90;;;;;;5013713;28;20094;-81
2022/11/17 03:05:36;;;;;;;13.35;9.57;;;-1.40;97.00;;;;;;5013740;28;20032;-81
2022/11/17 03:08:43;;;;;;;15.20;9.98;;;-1.40;97.10;;;;;;4998239;28;20096;-82
2022/11/17 03:11:10;;;;;;;15.68;9.35;;;-1.40;97.20;;;;;;5008644;28;20498;-81
2022/11/17 03:13:49;;;;;;;15.93;10.60;;;-1.40;97.30;;;;;;5015448;28;20029;-81
2022/11/17 03:16:37;;;;;;;14.07;9.65;;;-1.50;97.30;;;;;;5008535;28;20025;-82
2022/11/17 03:19:31;;;;;;;16.85;9.70;;;-1.50;97.50;;;;;;5007423;28;20426;-81
2022/11/17 03:22:18;;;;;;;15.80;11.10;;;-1.50;97.60;;;;;;5003779;28;20034;-83
2022/11/17 03:24:55;;;;;;;14.80;9.25;;;-1.50;97.70;;;;;;5015363;28;20029;-82
2022/11/17 03:27:46;;;;;;;16.33;10.27;;;-1.50;97.90;;;;;;5015558;28;20010;-82
2022/11/17 03:30:12;;;;;;;12.98;8.85;;;-1.50;98.00;;;;;;5012841;28;20565;-85
2022/11/17 03:32:42;;;;;;;14.88;11.13;;;-1.50;98.00;;;;;;5013760;28;20087;-83
2022/11/17 03:35:12;;;;;;;15.82;9.80;;;-1.50;98.00;;;;;;5014402;28;20028;-85
2022/11/17 03:37:44;;;;;;;13.38;9.43;;;-1.50;98.10;;;;;;5027941;28;20426;-83
2022/11/17 03:40:13;;;;;;;17.75;11.52;;;-1.50;98.20;;;;;;5014863;28;20161;-83
2022/11/17 03:42:52;;;;;;;14.48;9.90;;;-1.50;98.30;;;;;;5013829;28;20061;-84
2022/11/17 03:45:25;;;;;;;14.60;9.93;;;-1.40;98.30;;;;;;5014915;28;20028;-84
2022/11/17 03:47:58;;;;;;;15.93;10.43;;;-1.40;98.30;;;;;;5015401;28;20036;-83
2022/11/17 03:50:35;;;;;;;12.65;10.27;;;-1.40;98.40;;;;;;5014039;28;20018;-84
2022/11/17 03:53:05;;;;;;;16.73;12.18;;;-1.40;98.50;;;;;;5014943;28;20048;-82
2022/11/17 03:55:59;;;;;;;14.50;11.20;;;-1.40;98.40;;;;;;5016141;28;20030;-81
2022/11/17 03:58:30;;;;;;;20.08;12.95;;;-1.40;98.60;;;;;;5007017;28;20017;-83
2022/11/17 04:00:58;;;;;;;16.50;12.50;;;-1.40;98.60;;;;;;5013476;28;20024;-83
2022/11/17 04:03:29;;;;;;;15.82;12.20;;;-1.30;98.60;;;;;;5013654;28;20068;-82
2022/11/17 04:05:55;;;;;;;15.32;11.88;;;-1.30;98.60;;;;;;4995325;28;20026;-84
2022/11/17 04:08:24;;;;;;;15.93;10.40;;;-1.30;98.60;;;;;;5008477;28;20019;-83
2022/11/17 04:16:19;;;;;;;15.80;10.90;;;-1.30;98.60;;;;;;5008432;28;20021;-81
2022/11/17 04:18:45;;;;;;;19.70;11.32;;;-1.40;98.50;;;;;;5004853;28;20480;-82
2022/11/17 04:21:11;;;;;;;17.88;10.23;;;-1.40;98.60;;;;;;4996501;28;20080;-83
2022/11/17 04:23:36;;;;;;;15.80;11.15;;;-1.40;98.60;;;;;;5013753;28;20065;-82
2022/11/17 04:28:49;;;;;;;15.05;10.07;;;-1.40;98.70;;;;;;5015003;28;20048;-85
2022/11/17 04:31:17;;;;;;;21.48;11.30;;;-1.50;98.70;;;;;;5024051;28;20069;-84
2022/11/17 04:33:46;;;;;;;16.80;11.35;;;-1.40;98.80;;;;;;5001407;28;20069;-84
2022/11/17 04:36:14;;;;;;;14.38;9.27;;;-1.40;98.80;;;;;;5013115;28;20018;-84
2022/11/17 04:38:44;;;;;;;15.23;9.25;;;-1.40;98.80;;;;;;5012935;28;20057;-83
2022/11/17 04:44:03;;;;;;;15.00;9.35;;;-1.40;98.70;;;;;;5013734;28;20041;-84
2022/11/17 04:46:31;;;;;;;12.32;10.90;;;-1.30;98.70;;;;;;5012921;28;20033;-85
2022/11/17 04:48:57;;;;;;;17.67;12.95;;;-1.30;98.60;;;;;;4998110;28;20025;-83
2022/11/17 04:51:24;;;;;;;14.75;11.38;;;-1.30;98.70;;;;;;5011474;28;20029;-84
2022/11/17 04:53:50;;;;;;;16.08;11.95;;;-1.30;98.70;;;;;;4997621;28;20029;-82
2022/11/17 04:56:18;;;;;;;15.68;11.40;;;-1.20;98.70;;;;;;5018501;28;20018;-84
2022/11/17 04:58:44;;;;;;;13.88;11.30;;;-1.20;98.70;;;;;;5001533;28;20033;-83
2022/11/17 05:01:13;;;;;;;15.25;11.93;;;-1.20;98.70;;;;;;5011205;28;20030;-82
2022/11/17 05:03:57;;;;;;;19.58;11.82;;;-1.20;98.80;;;;;;5012923;28;20053;-84
2022/11/17 05:06:24;;;;;;;19.33;12.85;;;-1.20;99.00;;;;;;5010218;28;20101;-85
2022/11/17 05:08:54;;;;;;;19.30;13.93;;;-1.10;99.00;;;;;;5014823;28;20387;-82
2022/11/17 05:14:06;;;;;;;20.58;13.18;;;-1.00;99.00;;;;;;5017447;28;20165;-86
2022/11/17 05:19:20;;;;;;;22.77;14.85;;;-1.10;99.00;;;;;;5021871;28;20033;-84
2022/11/17 05:21:46;;;;;;;32.55;17.13;;;-1.10;99.30;;;;;;5021144;28;20040;-86
2022/11/17 05:24:15;;;;;;;26.13;15.63;;;-1.20;99.50;;;;;;5007704;28;20029;-84
2022/11/17 05:26:42;;;;;;;21.10;15.40;;;-1.20;99.70;;;;;;5016313;28;20088;-84
2022/11/17 05:29:10;;;;;;;25.27;15.93;;;-1.10;99.90;;;;;;5015989;28;20029;-84
2022/11/17 05:31:36;;;;;;;;;;;-1.00;99.90;;;;;;5016195;28;20068;-82
2022/11/17 05:34:03;;;;;;;20.42;15.18;;;-1.00;99.70;;;;;;5016434;28;19905;-83
2022/11/17 05:36:30;;;;;;;28.20;16.98;;;-1.00;99.70;;;;;;5015933;28;20030;-84
2022/11/17 05:38:56;;;;;;;19.90;16.15;;;-1.00;99.60;;;;;;4998182;28;20076;-85
2022/11/17 05:41:23;;;;;;;30.38;16.50;;;-1.00;99.90;;;;;;5017137;28;20092;-84
2022/11/17 05:43:49;;;;;;;21.38;15.88;;;-0.90;99.80;;;;;;5018082;28;20033;-85
2022/11/17 05:46:19;;;;;;;25.08;17.25;;;-0.90;99.80;;;;;;4981675;28;20027;-84
2022/11/17 05:48:47;;;;;;;28.20;17.50;;;-0.90;99.70;;;;;;5010172;28;20030;-85
2022/11/17 05:51:13;;;;;;;20.92;16.17;;;-0.90;99.70;;;;;;4999939;28;20018;-85
2022/11/17 05:53:39;;;;;;;21.15;14.43;;;-0.90;99.60;;;;;;5013507;28;20074;-83
2022/11/17 05:56:31;;;;;;;24.08;15.05;;;-0.90;99.70;;;;;;5013606;28;20026;-80
2022/11/17 05:59:20;;;;;;;22.15;15.70;;;-0.90;99.70;;;;;;5014934;28;20048;-83
2022/11/17 06:02:11;;;;;;;21.08;14.60;;;-0.90;99.70;;;;;;5008963;28;20026;-81
2022/11/17 06:04:38;;;;;;;23.83;17.27;;;-0.90;99.70;;;;;;5014910;28;20088;-82
2022/11/17 06:07:03;;;;;;;21.98;14.73;;;-0.80;99.80;;;;;;5016155;28;20022;-83
2022/11/17 06:09:36;;;;;;;29.05;18.10;;;-0.80;99.70;;;;;;5015815;28;20034;-82
2022/11/17 06:12:02;;;;;;;28.75;18.77;;;-0.80;99.70;;;;;;5011647;28;20022;-81
2022/11/17 06:14:27;;;;;;;31.00;19.95;;;-0.80;99.70;;;;;;5015198;28;20037;-82
2022/11/17 06:16:58;;;;;;;30.08;19.17;;;-0.80;99.60;;;;;;5015484;28;20022;-82
2022/11/17 06:19:32;;;;;;;27.55;19.90;;;-0.80;99.50;;;;;;5015398;28;20087;-81
2022/11/17 06:21:59;;;;;;;27.48;19.52;;;-0.80;99.50;;;;;;5018203;28;20021;-81
2022/11/17 06:24:25;;;;;;;25.70;18.40;;;-0.90;99.50;;;;;;5017833;28;20030;-81
2022/11/17 06:26:51;;;;;;;25.10;17.10;;;-0.90;99.50;;;;;;5018024;28;20025;-80
2022/11/17 06:29:17;;;;;;;25.50;16.52;;;-0.90;99.50;;;;;;5016278;28;20053;-82
2022/11/17 06:31:44;;;;;;;26.75;17.98;;;-0.90;99.40;;;;;;5016905;28;20042;-82
2022/11/17 06:34:17;;;;;;;25.55;16.70;;;-1.00;99.40;;;;;;5018266;28;20762;-84
2022/11/17 06:36:43;;;;;;;33.85;20.73;;;-1.00;99.50;;;;;;5015483;28;20022;-83
2022/11/17 06:39:08;;;;;;;33.25;20.35;;;-1.00;99.60;;;;;;5015851;28;20025;-82
2022/11/17 06:41:35;;;;;;;43.42;24.50;;;-1.00;99.60;;;;;;5015197;28;20060;-85
2022/11/17 06:44:01;;;;;;;36.95;26.35;;;-1.00;99.60;;;;;;5015054;28;20099;-84
2022/11/17 06:46:36;;;;;;;39.63;28.13;;;-1.00;99.50;;;;;;4997438;28;20022;-84
2022/11/17 06:49:04;;;;;;;47.40;28.92;;;-1.00;99.60;;;;;;5010126;28;20022;-84
2022/11/17 06:51:30;;;;;;;43.03;28.88;;;-0.90;99.70;;;;;;5018208;28;20018;-82
2022/11/17 06:53:56;;;;;;;51.05;31.38;;;-0.90;99.60;;;;;;5019051;28;20501;-83
2022/11/17 06:56:22;;;;;;;49.10;30.73;;;-0.80;99.40;;;;;;5008203;28;20014;-84
2022/11/17 06:58:48;;;;;;;42.80;29.55;;;-0.80;99.00;;;;;;5016768;28;20026;-84
2022/11/17 07:01:15;;;;;;;51.30;30.00;;;-0.80;99.00;;;;;;5018406;28;20099;-84
2022/11/17 07:03:41;;;;;;;40.78;27.75;;;-0.80;98.90;;;;;;5007212;28;20364;-81
2022/11/17 07:06:09;;;;;;;43.03;27.25;;;-0.80;98.80;;;;;;5017628;28;20387;-81
2022/11/17 07:08:35;;;;;;;43.47;26.23;;;-0.80;98.80;;;;;;4997949;28;20034;-85
2022/11/17 07:11:03;;;;;;;44.55;25.15;;;-0.80;98.80;;;;;;5015479;28;20025;-84
2022/11/17 07:13:30;;;;;;;42.58;25.23;;;-0.80;98.80;;;;;;5014520;28;20068;-84
2022/11/17 07:16:08;;;;;;;38.03;23.85;;;-0.80;98.70;;;;;;5014697;28;20022;-84
2022/11/17 07:18:35;;;;;;;31.70;23.15;;;-0.80;98.70;;;;;;5014225;28;20021;-83
2022/11/17 07:21:03;;;;;;;31.43;20.43;;;-0.70;98.90;;;;;;4997054;28;20030;-84
2022/11/17 07:23:30;;;;;;;30.92;18.48;;;-0.70;98.80;;;;;;5013196;28;20034;-83
2022/11/17 07:25:57;;;;;;;28.05;17.63;;;-0.70;98.70;;;;;;5014124;28;20026;-84
2022/11/17 07:28:23;;;;;;;24.58;16.27;;;-0.60;98.60;;;;;;5014305;28;20029;-83
2022/11/17 07:30:48;;;;;;;23.45;15.88;;;-0.60;98.40;;;;;;5013674;28;20046;-83
2022/11/17 07:33:14;;;;;;;22.70;14.82;;;-0.60;98.10;;;;;;5012834;28;20132;-82
2022/11/17 07:35:40;;;;;;;16.05;10.57;;;-0.60;97.90;;;;;;5013839;28;20037;-83
2022/11/17 07:38:07;;;;;;;14.18;10.40;;;-0.60;97.90;;;;;;5010180;28;20025;-82
2022/11/17 07:40:33;;;;;;;17.70;10.10;;;-0.60;97.80;;;;;;5013537;28;20026;-80
2022/11/17 07:43:00;;;;;;;14.13;11.35;;;-0.60;97.80;;;;;;4992763;28;20030;-82
2022/11/17 07:45:27;;;;;;;17.33;11.68;;;-0.60;97.50;;;;;;5007166;28;20109;-83
2022/11/17 07:47:58;;;;;;;18.77;11.73;;;-0.60;97.30;;;;;;5013807;28;20030;-83
2022/11/17 07:50:25;;;;;;;18.92;12.00;;;-0.50;97.30;;;;;;5014958;28;20399;-87
2022/11/17 07:52:52;;;;;;;14.45;10.18;;;-0.50;97.30;;;;;;5022878;28;20037;-84
2022/11/17 07:55:18;;;;;;;22.25;14.13;;;-0.50;97.10;;;;;;5022426;28;20037;-85
2022/11/17 07:57:45;;;;;;;21.52;14.82;;;-0.50;97.10;;;;;;5022068;28;20018;-86
2022/11/17 08:00:12;;;;;;;20.52;13.30;;;-0.50;97.00;;;;;;5005948;28;20038;-85
2022/11/17 08:02:38;;;;;;;24.02;14.43;;;-0.50;96.90;;;;;;5013527;28;20048;-85
2022/11/17 08:05:04;;;;;;;25.55;15.18;;;-0.60;96.70;;;;;;4997448;28;20112;-84
2022/11/17 08:07:30;;;;;;;20.83;14.23;;;-0.80;97.00;;;;;;5010110;28;20033;-86
2022/11/17 08:09:56;;;;;;;31.35;17.08;;;-0.80;97.20;;;;;;4997069;28;20026;-85
2022/11/17 08:12:22;;;;;;;29.20;17.17;;;-0.90;97.20;;;;;;4998051;28;20422;-85
2022/11/17 08:14:48;;;;;;;27.25;16.08;;;-0.90;97.00;;;;;;5021142;28;20041;-84
2022/11/17 08:17:16;;;;;;;33.10;18.27;;;-0.90;97.00;;;;;;5022840;28;20112;-84
2022/11/17 08:19:41;;;;;;;;;;;-1.00;97.30;;;;;;5014311;28;20022;-83
2022/11/17 08:22:07;;;;;;;34.90;19.98;;;-1.00;97.40;;;;;;5013385;28;20301;-83
2022/11/17 08:24:33;;;;;;;28.50;16.77;;;-1.00;97.50;;;;;;5016422;28;20040;-85
2022/11/17 08:26:59;;;;;;;29.35;18.45;;;-1.00;97.40;;;;;;5001550;28;20014;-84
2022/11/17 08:29:25;;;;;;;31.85;20.02;;;-1.00;97.30;;;;;;5008444;28;20034;-84
2022/11/17 08:31:51;;;;;;;25.58;16.25;;;-0.90;97.30;;;;;;5014061;28;20025;-84
2022/11/17 08:34:17;;;;;;;33.42;19.05;;;-0.90;97.30;;;;;;5013452;28;20029;-86
2022/11/17 08:36:42;;;;;;;34.33;22.52;;;-1.00;97.40;;;;;;5014234;28;20034;-85
2022/11/17 08:39:08;;;;;;;36.17;22.17;;;-1.10;97.40;;;;;;5014171;28;20141;-85
2022/11/17 08:41:34;;;;;;;30.52;20.67;;;-1.10;97.30;;;;;;5014455;28;20384;-85
2022/11/17 08:44:00;;;;;;;33.60;21.40;;;-1.20;97.00;;;;;;5014691;28;20038;-83
2022/11/17 08:46:29;;;;;;;32.60;20.88;;;-1.20;96.60;;;;;;5020215;28;20052;-85
2022/11/17 08:48:57;;;;;;;32.15;16.73;;;-1.20;96.50;;;;;;5022037;28;20033;-86
2022/11/17 08:51:23;;;;;;;25.02;14.93;;;-1.30;96.50;;;;;;5013165;28;20022;-84
2022/11/17 08:53:49;;;;;;;19.85;12.32;;;-1.40;96.50;;;;;;4994462;28;20418;-85
2022/11/17 08:56:15;;;;;;;17.50;13.18;;;-1.40;96.30;;;;;;5011013;28;20029;-83
2022/11/17 08:58:42;;;;;;;18.63;11.32;;;-1.40;96.20;;;;;;5012654;28;20037;-84
2022/11/17 09:01:10;;;;;;;18.98;11.85;;;-1.50;96.10;;;;;;5010183;28;20472;-85
2022/11/17 09:03:41;;;;;;;16.17;11.27;;;-1.50;96.30;;;;;;5012365;28;20491;-85
2022/11/17 09:06:07;;;;;;;18.00;11.43;;;-1.60;96.30;;;;;;4995019;28;20448;-84
2022/11/17 09:08:33;;;;;;;15.65;9.05;;;-1.60;96.30;;;;;;5010950;28;20040;-85
2022/11/17 09:11:04;;;;;;;14.10;8.55;;;-1.70;96.00;;;;;;5012886;28;20112;-84
2022/11/17 09:13:31;;;;;;;10.95;8.05;;;-1.70;95.70;;;;;;5011318;28;20084;-85
2022/11/17 09:16:07;;;;;;;15.82;9.70;;;-1.70;95.90;;;;;;5013766;28;20105;-89
2022/11/17 09:18:34;;;;;;;17.17;8.85;;;-1.60;95.70;;;;;;5009304;28;20046;-85
2022/11/17 09:21:01;;;;;;;20.00;9.43;;;-1.40;95.80;;;;;;5007627;28;20030;-88
2022/11/17 09:23:28;;;;;;;16.63;9.32;;;-1.30;95.80;;;;;;5012783;28;20132;-88
2022/11/17 09:25:54;;;;;;;11.20;7.00;;;-1.10;95.70;;;;;;5021538;28;20025;-88
2022/11/17 09:28:20;;;;;;;15.55;9.27;;;-1.00;95.70;;;;;;5020450;28;20030;-85
2022/11/17 09:30:46;;;;;;;15.15;7.65;;;-0.90;95.50;;;;;;5014933;28;20519;-88
2022/11/17 09:33:11;;;;;;;14.02;7.82;;;-0.90;95.40;;;;;;4996081;28;20040;-87
2022/11/17 09:35:38;;;;;;;11.57;8.80;;;-1.00;95.30;;;;;;5014656;28;20093;-85
2022/11/17 09:38:03;;;;;;;11.80;8.27;;;-1.00;95.10;;;;;;5011870;28;20032;-85
2022/11/17 09:40:29;;;;;;;12.27;7.22;;;-1.00;94.90;;;;;;5012536;28;20018;-84
2022/11/17 09:42:56;;;;;;;11.35;7.68;;;-1.00;94.90;;;;;;5012395;28;20453;-85
2022/11/17 09:45:30;;;;;;;13.00;7.93;;;-0.80;95.10;;;;;;5013993;28;20022;-85
2022/11/17 09:48:11;;;;;;;14.82;9.15;;;-0.70;95.30;;;;;;5012476;28;20030;-85
2022/11/17 09:50:39;;;;;;;11.65;8.07;;;-0.60;95.00;;;;;;5008192;28;20105;-86
2022/11/17 09:53:21;;;;;;;19.23;10.50;;;-0.30;95.10;;;;;;5000131;28;20034;-85
2022/11/17 09:56:08;;;;;;;18.63;11.73;;;-0.20;94.40;;;;;;5017981;28;20030;-83
2022/11/17 09:58:38;;;;;;;22.85;11.60;;;-0.20;93.10;;;;;;5024773;28;20014;-89
2022/11/17 10:01:05;;;;;;;17.38;10.55;;;-0.20;93.00;;;;;;5024716;28;20056;-88
2022/11/17 10:03:39;;;;;;;17.67;10.95;;;-0.20;93.10;;;;;;5018826;28;20234;-87
2022/11/17 10:06:17;;;;;;;17.88;8.95;;;-0.40;92.70;;;;;;5020462;28;20044;-85
2022/11/17 10:08:59;;;;;;;13.45;9.13;;;-0.70;92.50;;;;;;5001062;28;20018;-85
2022/11/17 10:11:45;;;;;;;17.80;8.68;;;-0.90;92.90;;;;;;5028642;28;20041;-90
2022/11/17 10:14:14;;;;;;;15.35;9.40;;;-0.90;93.10;;;;;;5018011;28;20018;-88
2022/11/17 10:16:51;;;;;;;13.05;7.28;;;-1.00;93.20;;;;;;5017958;28;20341;-87
2022/11/17 10:19:23;;;;;;;16.65;7.88;;;-1.10;92.70;;;;;;5017005;28;20022;-87
2022/11/17 10:22:04;;;;;;;13.77;7.85;;;-1.30;93.20;;;;;;5016249;28;20109;-91
2022/11/17 10:24:54;;;;;;;14.10;7.32;;;-1.30;93.40;;;;;;5022725;28;20403;-93
2022/11/17 10:27:27;;;;;;;10.25;6.85;;;-1.30;93.60;;;;;;5017576;28;20018;-88
2022/11/17 10:30:15;;;;;;;12.23;6.25;;;-1.30;93.30;;;;;;5022520;28;20518;-88
2022/11/17 10:32:50;;;;;;;9.35;5.47;;;-1.30;93.30;;;;;;5016378;28;20511;-89
2022/11/17 10:35:21;;;;;;;7.80;5.22;;;-1.20;93.30;;;;;;4999587;28;20462;-91
2022/11/17 10:38:12;;;;;;;7.97;5.38;;;-1.30;93.30;;;;;;5017835;28;20447;-88
2022/11/17 10:40:38;;;;;;;7.43;5.25;;;-1.40;93.20;;;;;;4999538;28;20042;-86
2022/11/17 10:43:22;;;;;;;9.25;5.72;;;-1.30;93.10;;;;;;5002707;28;20046;-87
2022/11/17 10:45:50;;;;;;;8.95;5.55;;;-1.30;93.10;;;;;;5021754;28;20538;-90
2022/11/17 10:48:30;;;;;;;9.02;6.13;;;-1.30;93.00;;;;;;5015626;28;20084;-88
2022/11/17 10:50:56;;;;;;;9.00;5.15;;;-1.20;93.30;;;;;;5018071;28;20036;-87
2022/11/17 10:53:35;;;;;;;9.75;5.60;;;-1.20;93.20;;;;;;5008404;28;20018;-86
2022/11/17 10:56:17;;;;;;;8.23;5.35;;;-1.30;92.90;;;;;;5010812;28;20092;-87
2022/11/17 10:59:07;;;;;;;12.20;6.72;;;-1.30;92.90;;;;;;5009349;28;20438;-89
2022/11/17 11:01:35;;;;;;;9.80;5.65;;;-1.30;92.80;;;;;;5018330;28;20021;-87
2022/11/17 11:04:04;;;;;;;7.95;5.35;;;-1.40;93.10;;;;;;5018430;28;20026;-86
2022/11/17 11:06:40;;;;;;;7.32;5.75;;;-1.40;93.00;;;;;;5019256;28;20025;-86
2022/11/17 11:09:20;;;;;;;7.95;4.60;;;-1.40;93.30;;;;;;5027031;28;20084;-85
2022/11/17 11:11:52;;;;;;;6.88;3.80;;;-1.40;93.00;;;;;;5029574;28;20054;-87
2022/11/17 11:14:30;;;;;;;6.53;4.47;;;-1.50;92.80;;;;;;5004293;28;20051;-89
2022/11/17 11:16:56;;;;;;;5.78;3.72;;;-1.50;92.80;;;;;;5025658;28;20022;-88
2022/11/17 11:19:23;;;;;;;6.93;4.05;;;-1.40;92.80;;;;;;5020806;28;20026;-91
2022/11/17 11:22:24;;;;;;;6.30;3.45;;;-1.30;92.80;;;;;;5015869;28;20175;-85
2022/11/17 11:25:07;;;;;;;6.03;4.18;;;-1.30;92.60;;;;;;5014542;28;20041;-85
2022/11/17 11:28:01;;;;;;;6.05;4.70;;;-1.30;92.40;;;;;;5014808;28;20025;-84
2022/11/17 11:30:38;;;;;;;9.40;5.90;;;-1.40;92.50;;;;;;5003671;28;20038;-83
2022/11/17 11:33:26;;;;;;;14.23;7.88;;;-1.40;93.00;;;;;;5015921;28;20391;-85
2022/11/17 11:36:14;;;;;;;5.15;3.65;;;-1.50;93.20;;;;;;5016383;28;20022;-86
2022/11/17 11:39:21;;;;;;;15.40;7.40;;;-1.60;93.70;;;;;;5015278;28;20044;-85
2022/11/17 11:42:17;;;;;;;9.88;6.18;;;-1.70;93.90;;;;;;5003098;28;20088;-85
2022/11/17 11:44:43;;;;;;;7.40;5.75;;;-1.60;94.10;;;;;;4983736;28;20124;-85
2022/11/17 11:47:46;;;;;;;12.27;6.38;;;-1.80;94.00;;;;;;5014633;28;20116;-83
2022/11/17 11:50:41;;;;;;;14.07;8.80;;;-1.70;94.30;;;;;;5004569;28;20060;-86
2022/11/17 11:53:31;;;;;;;9.95;5.28;;;-1.70;94.30;;;;;;5015461;28;20014;-86
2022/11/17 11:56:11;;;;;;;9.10;5.43;;;-1.80;94.10;;;;;;5016260;28;20078;-84
2022/11/17 11:59:06;;;;;;;9.65;6.80;;;-1.70;94.40;;;;;;5018649;28;20018;-83
2022/11/17 12:02:19;;;;;;;11.35;6.15;;;-1.70;94.50;;;;;;5020741;28;20060;-84
2022/11/17 12:04:59;;;;;;;13.32;7.15;;;-1.80;94.10;;;;;;5005772;28;20081;-85
2022/11/17 12:07:31;;;;;;;9.43;6.47;;;-2.00;94.40;;;;;;5019161;28;20025;-88
2022/11/17 12:10:12;;;;;;;14.18;6.40;;;-1.90;94.90;;;;;;5016066;28;20022;-88
2022/11/17 12:12:39;;;;;;;7.47;5.35;;;-1.90;94.90;;;;;;5022339;28;20118;-87
2022/11/17 12:15:19;;;;;;;9.32;7.53;;;-1.90;94.70;;;;;;5019710;28;20057;-84
2022/11/17 12:17:57;;;;;;;14.55;6.40;;;-2.10;94.30;;;;;;5013129;28;20068;-83
2022/11/17 12:20:50;;;;;;;13.07;6.47;;;-2.10;94.00;;;;;;5014159;28;20096;-87
2022/11/17 12:23:52;;;;;;;8.57;5.05;;;-2.10;94.20;;;;;;4998710;28;20411;-89
2022/11/17 12:26:31;;;;;;;10.88;6.07;;;-2.10;93.60;;;;;;5019437;28;20026;-88
2022/11/17 12:29:16;;;;;;;7.50;4.10;;;-2.30;94.00;;;;;;4999396;28;20113;-86
2022/11/17 12:31:48;;;;;;;8.90;5.40;;;-2.40;94.00;;;;;;4999737;28;20491;-89
2022/11/17 12:34:32;;;;;;;6.43;5.38;;;-2.40;94.50;;;;;;5016287;28;20017;-89
2022/11/17 12:37:14;;;;;;;7.63;4.35;;;-2.40;94.60;;;;;;5015183;28;20032;-89
2022/11/17 12:39:58;;;;;;;14.13;6.10;;;-2.50;94.70;;;;;;5001571;28;20106;-83
2022/11/17 12:42:24;;;;;;;8.68;5.35;;;-2.50;94.50;;;;;;5017354;28;20026;-83
2022/11/17 12:44:56;;;;;;;7.63;4.17;;;-2.50;94.20;;;;;;5022081;28;20026;-85
2022/11/17 12:47:27;;;;;;;6.10;3.88;;;-2.50;93.50;;;;;;5018631;28;20112;-91
2022/11/17 12:50:03;;;;;;;7.03;4.70;;;-2.60;93.30;;;;;;5015494;28;20122;-88
2022/11/17 12:52:38;;;;;;;8.90;4.43;;;-2.60;93.40;;;;;;5016829;28;20022;-87
2022/11/17 12:55:31;;;;;;;6.22;3.83;;;-2.70;93.40;;;;;;5015718;28;20033;-86
2022/11/17 12:58:24;;;;;;;5.05;3.47;;;-2.70;93.50;;;;;;5014944;28;20022;-88
2022/11/17 13:01:00;;;;;;;9.13;5.15;;;-2.80;93.30;;;;;;5002999;28;20049;-86
2022/11/17 13:04:03;;;;;;;6.85;4.55;;;-2.90;93.70;;;;;;5023757;28;20530;-88
2022/11/17 13:06:29;;;;;;;6.70;4.38;;;-2.90;93.70;;;;;;5026498;28;20034;-87
2022/11/17 13:08:58;;;;;;;5.05;3.33;;;-2.90;93.40;;;;;;5027756;28;20036;-86
2022/11/17 13:11:24;;;;;;;8.43;4.00;;;-3.00;93.10;;;;;;5017915;28;20072;-86
2022/11/17 13:14:13;;;;;;;4.30;3.70;;;-3.10;93.20;;;;;;5016024;28;20030;-86
2022/11/17 13:16:49;;;;;;;4.45;3.25;;;-3.10;93.20;;;;;;5017261;28;20255;-89
2022/11/17 13:19:35;;;;;;;6.15;3.85;;;-3.10;92.30;;;;;;5014135;28;20430;-90
2022/11/17 13:22:22;;;;;;;2.73;2.40;;;-3.10;92.50;;;;;;5016998;28;20453;-90
2022/11/17 13:24:49;;;;;;;;;;;-3.10;92.40;;;;;;5001860;28;20104;-92
2022/11/17 13:27:28;;;;;;;4.82;3.67;;;-3.20;92.50;;;;;;5015258;28;19913;-91
2022/11/17 13:30:14;;;;;;;4.25;3.42;;;-3.20;92.50;;;;;;5022457;28;20061;-88